createdAt,value
2017-03-24T00:00:14.579Z,0
2017-03-24T00:01:24.818Z,0
2017-03-24T00:02:34.744Z,0
2017-03-24T00:03:44.990Z,0
2017-03-24T00:04:55.237Z,0
2017-03-24T00:06:05.475Z,0
2017-03-24T00:07:15.401Z,0
2017-03-24T00:08:25.333Z,0
2017-03-24T00:09:35.585Z,0
2017-03-24T00:10:45.826Z,0
2017-03-24T00:11:55.132Z,0
2017-03-24T00:13:05.379Z,0
2017-03-24T00:14:15.626Z,0
2017-03-24T00:15:25.553Z,0
2017-03-24T00:16:35.486Z,0
2017-03-24T00:17:45.417Z,0
2017-03-24T00:18:55.041Z,0
2017-03-24T00:20:05.281Z,0
2017-03-24T00:21:14.892Z,0
2017-03-24T00:22:24.817Z,0
2017-03-24T00:23:34.744Z,0
2017-03-24T00:24:44.356Z,0
2017-03-24T00:25:54.595Z,0
2017-03-24T00:27:04.524Z,0
2017-03-24T00:28:14.155Z,0
2017-03-24T00:29:24.399Z,0
2017-03-24T00:30:34.327Z,0
2017-03-24T00:31:44.566Z,0
2017-03-24T00:32:54.816Z,0
2017-03-24T00:34:05.067Z,0
2017-03-24T00:35:15.309Z,0
2017-03-24T00:44:23.923Z,0
2017-03-24T00:45:34.151Z,0
2017-03-24T00:46:44.073Z,0
2017-03-24T00:47:53.992Z,0
2017-03-24T00:49:04.221Z,0
2017-03-24T00:50:14.135Z,0
2017-03-24T00:51:24.358Z,0
2017-03-24T00:52:34.273Z,0
2017-03-24T00:53:44.192Z,0
2017-03-24T00:54:54.421Z,0
2017-03-24T00:56:04.648Z,0
2017-03-24T00:57:14.250Z,0
2017-03-24T00:58:24.171Z,0
2017-03-24T00:59:34.087Z,0
2017-03-24T01:00:43.691Z,0
2017-03-24T01:01:53.915Z,0
2017-03-24T01:03:04.147Z,0
2017-03-24T01:04:14.066Z,0
2017-03-24T01:05:23.986Z,0
2017-03-24T01:06:34.223Z,0
2017-03-24T01:07:43.824Z,0
2017-03-24T01:08:54.057Z,0
2017-03-24T01:10:04.294Z,0
2017-03-24T01:11:14.564Z,0
2017-03-24T01:12:24.796Z,0
2017-03-24T01:13:34.714Z,0
2017-03-24T01:14:44.946Z,0
2017-03-24T01:15:55.188Z,0
2017-03-24T01:17:05.415Z,0
2017-03-24T01:18:15.331Z,0
2017-03-24T01:19:25.571Z,0
2017-03-24T01:20:35.796Z,0
2017-03-24T01:21:45.709Z,0
2017-03-24T01:22:55.641Z,0
2017-03-24T01:24:05.875Z,0
2017-03-24T01:25:15.486Z,0
2017-03-24T01:26:25.719Z,0
2017-03-24T01:27:35.963Z,0
2017-03-24T01:28:45.902Z,0
2017-03-24T01:29:56.160Z,0
2017-03-24T01:31:05.782Z,0
2017-03-24T01:32:15.709Z,0
2017-03-24T01:33:25.656Z,0
2017-03-24T01:34:35.902Z,0
2017-03-24T01:35:46.153Z,0
2017-03-24T01:36:56.400Z,0
2017-03-24T01:38:06.648Z,0
2017-03-24T01:39:15.653Z,0
2017-03-24T01:40:25.597Z,0
2017-03-24T01:41:35.534Z,0
2017-03-24T01:42:45.784Z,0
2017-03-24T01:43:55.722Z,0
2017-03-24T01:45:05.650Z,0
2017-03-24T01:46:15.894Z,0
2017-03-24T01:47:26.146Z,0
2017-03-24T01:48:36.393Z,0
2017-03-24T01:49:46.638Z,0
2017-03-24T01:50:56.570Z,0
2017-03-24T01:52:06.812Z,0
2017-03-24T01:53:16.744Z,0
2017-03-24T01:54:26.685Z,0
2017-03-24T01:55:36.614Z,0
2017-03-24T01:56:46.550Z,0
2017-03-24T01:57:56.792Z,0
2017-03-24T01:59:07.039Z,0
2017-03-24T02:00:17.286Z,0
2017-03-24T02:01:27.213Z,0
2017-03-24T02:02:37.136Z,0
2017-03-24T02:03:46.761Z,0
2017-03-24T02:04:56.712Z,0
2017-03-24T02:06:06.028Z,0
2017-03-24T02:07:15.960Z,0
2017-03-24T02:08:25.901Z,0
2017-03-24T02:09:35.834Z,0
2017-03-24T02:10:46.087Z,0
2017-03-24T02:11:56.333Z,0
2017-03-24T02:13:06.338Z,0
2017-03-24T02:14:16.589Z,0
2017-03-24T02:15:26.520Z,0
2017-03-24T02:16:36.770Z,0
2017-03-24T02:17:46.393Z,0
2017-03-24T02:18:56.021Z,0
2017-03-24T02:20:05.954Z,0
2017-03-24T02:21:15.884Z,0
2017-03-24T02:22:25.820Z,0
2017-03-24T02:23:35.442Z,0
2017-03-24T02:24:45.371Z,0
2017-03-24T02:25:55.296Z,0
2017-03-24T02:27:05.225Z,0
2017-03-24T02:28:15.172Z,0
2017-03-24T02:29:25.101Z,0
2017-03-24T02:30:35.036Z,0
2017-03-24T02:31:45.279Z,0
2017-03-24T02:32:55.527Z,0
2017-03-24T02:34:05.788Z,0
2017-03-24T02:35:15.400Z,0
2017-03-24T02:36:25.326Z,0
2017-03-24T02:37:35.260Z,0
2017-03-24T02:38:45.198Z,0
2017-03-24T02:39:55.453Z,0
2017-03-24T02:41:05.393Z,0
2017-03-24T02:42:15.630Z,0
2017-03-24T02:43:25.879Z,0
2017-03-24T02:44:35.814Z,0
2017-03-24T02:45:45.791Z,0
2017-03-24T02:46:56.037Z,0
2017-03-24T02:48:06.280Z,0
2017-03-24T02:49:16.210Z,0
2017-03-24T02:50:26.451Z,0
2017-03-24T02:51:36.694Z,0
2017-03-24T02:52:46.625Z,0
2017-03-24T02:53:56.551Z,0
2017-03-24T02:55:06.206Z,0
2017-03-24T02:56:16.144Z,0
2017-03-24T02:57:26.386Z,0
2017-03-24T02:58:36.324Z,0
2017-03-24T02:59:46.255Z,0
2017-03-24T03:00:56.185Z,0
2017-03-24T03:02:06.435Z,0
2017-03-24T03:03:16.370Z,0
2017-03-24T03:04:26.613Z,0
2017-03-24T03:05:35.917Z,0
2017-03-24T03:06:45.850Z,0
2017-03-24T03:07:56.100Z,0
2017-03-24T03:09:06.041Z,0
2017-03-24T03:10:16.286Z,0
2017-03-24T03:11:26.216Z,0
2017-03-24T03:12:36.478Z,0
2017-03-24T03:13:46.736Z,0
2017-03-24T03:14:56.673Z,0
2017-03-24T03:16:05.980Z,0
2017-03-24T03:17:16.226Z,0
2017-03-24T03:18:26.195Z,0
2017-03-24T03:19:36.161Z,0
2017-03-24T03:20:46.405Z,0
2017-03-24T03:21:56.327Z,0
2017-03-24T03:23:06.330Z,0
2017-03-24T03:24:16.593Z,0
2017-03-24T03:25:26.224Z,0
2017-03-24T03:26:36.154Z,0
2017-03-24T03:27:46.407Z,0
2017-03-24T03:28:56.667Z,0
2017-03-24T03:30:05.973Z,0
2017-03-24T03:31:16.211Z,0
2017-03-24T03:32:26.455Z,0
2017-03-24T03:33:36.702Z,0
2017-03-24T03:34:46.636Z,0
2017-03-24T03:35:56.266Z,0
2017-03-24T03:37:06.508Z,0
2017-03-24T03:38:16.753Z,0
2017-03-24T03:39:27.005Z,0
2017-03-24T03:40:37.247Z,0
2017-03-24T03:41:47.178Z,0
2017-03-24T03:42:57.428Z,0
2017-03-24T03:44:07.678Z,0
2017-03-24T03:45:17.924Z,0
2017-03-24T03:46:27.856Z,0
2017-03-24T03:47:38.104Z,0
2017-03-24T03:48:48.044Z,0
2017-03-24T03:49:58.290Z,0
2017-03-24T03:51:08.532Z,0
2017-03-24T03:52:18.779Z,0
2017-03-24T03:53:28.709Z,0
2017-03-24T03:54:39.005Z,0
2017-03-24T03:55:49.251Z,0
2017-03-24T03:56:59.486Z,0
2017-03-24T03:58:09.424Z,0
2017-03-24T03:59:19.674Z,0
2017-03-24T04:00:29.926Z,0
2017-03-24T04:01:40.169Z,0
2017-03-24T04:02:49.785Z,0
2017-03-24T04:04:00.037Z,0
2017-03-24T04:05:10.289Z,0
2017-03-24T04:06:20.539Z,0
2017-03-24T04:07:30.477Z,0
2017-03-24T04:08:40.730Z,0
2017-03-24T04:09:50.971Z,0
2017-03-24T04:11:01.228Z,0
2017-03-24T04:12:10.537Z,0
2017-03-24T04:13:20.790Z,0
2017-03-24T04:14:31.037Z,0
2017-03-24T04:15:41.280Z,0
2017-03-24T04:16:50.903Z,0
2017-03-24T04:18:01.156Z,0
2017-03-24T04:19:11.097Z,0
2017-03-24T04:20:21.341Z,0
2017-03-24T04:21:31.586Z,0
2017-03-24T04:22:41.839Z,0
2017-03-24T04:23:51.770Z,0
2017-03-24T04:25:01.710Z,0
2017-03-24T04:26:11.648Z,0
2017-03-24T04:27:21.578Z,0
2017-03-24T04:28:31.829Z,0
2017-03-24T04:29:41.769Z,0
2017-03-24T04:30:51.710Z,0
2017-03-24T04:32:01.389Z,0
2017-03-24T04:33:11.009Z,0
2017-03-24T04:34:20.964Z,0
2017-03-24T04:35:31.207Z,0
2017-03-24T04:36:41.141Z,0
2017-03-24T04:37:51.071Z,0
2017-03-24T04:39:01.018Z,0
2017-03-24T04:40:10.951Z,0
2017-03-24T04:41:20.878Z,0
2017-03-24T04:42:30.819Z,0
2017-03-24T04:43:41.086Z,0
2017-03-24T04:44:51.325Z,0
2017-03-24T04:46:01.570Z,0
2017-03-24T04:47:11.197Z,0
2017-03-24T04:48:20.827Z,0
2017-03-24T04:49:30.448Z,0
2017-03-24T04:50:40.690Z,0
2017-03-24T04:51:50.305Z,0
2017-03-24T04:53:00.555Z,0
2017-03-24T04:54:10.807Z,0
2017-03-24T04:55:21.051Z,0
2017-03-24T04:56:30.975Z,0
2017-03-24T04:57:41.224Z,0
2017-03-24T04:58:51.469Z,0
2017-03-24T05:00:01.410Z,0
2017-03-24T05:01:11.034Z,0
2017-03-24T05:02:21.272Z,0
2017-03-24T05:03:30.900Z,0
2017-03-24T05:04:40.836Z,0
2017-03-24T05:05:50.491Z,0
2017-03-24T05:07:00.440Z,0
2017-03-24T05:08:10.689Z,0
2017-03-24T05:09:20.626Z,0
2017-03-24T05:10:30.870Z,0
2017-03-24T05:11:40.806Z,0
2017-03-24T05:12:51.051Z,0
2017-03-24T05:14:00.990Z,0
2017-03-24T05:15:10.918Z,0
2017-03-24T05:16:20.857Z,0
2017-03-24T05:17:30.481Z,0
2017-03-24T05:18:40.729Z,0
2017-03-24T05:19:50.356Z,0
2017-03-24T05:21:00.615Z,0
2017-03-24T05:22:10.863Z,0
2017-03-24T05:23:21.113Z,0
2017-03-24T05:24:31.050Z,0
2017-03-24T05:25:41.300Z,0
2017-03-24T05:26:51.236Z,4
2017-03-24T05:28:01.488Z,4
2017-03-24T05:29:11.763Z,4
2017-03-24T05:30:22.015Z,4
2017-03-24T05:31:31.946Z,4
2017-03-24T05:32:41.883Z,4
2017-03-24T05:33:51.821Z,4
2017-03-24T05:35:01.764Z,0
2017-03-24T05:36:11.718Z,0
2017-03-24T05:37:21.959Z,0
2017-03-24T05:38:31.583Z,0
2017-03-24T05:39:41.835Z,0
2017-03-24T05:40:51.772Z,0
2017-03-24T05:42:01.391Z,0
2017-03-24T05:43:11.014Z,0
2017-03-24T05:44:21.260Z,0
2017-03-24T05:45:31.503Z,0
2017-03-24T05:46:41.435Z,0
2017-03-24T05:47:51.722Z,0
2017-03-24T05:49:01.658Z,0
2017-03-24T05:50:11.901Z,0
2017-03-24T05:51:21.838Z,0
2017-03-24T05:52:31.774Z,0
2017-03-24T05:53:42.017Z,0
2017-03-24T05:54:51.958Z,0
2017-03-24T05:56:02.205Z,0
2017-03-24T05:57:12.458Z,0
2017-03-24T05:58:22.078Z,0
2017-03-24T05:59:32.005Z,4
2017-03-24T06:00:41.626Z,4
2017-03-24T06:01:51.555Z,4
2017-03-24T06:03:01.173Z,4
2017-03-24T06:04:11.112Z,4
2017-03-24T06:05:21.380Z,4
2017-03-24T06:06:31.626Z,4
2017-03-24T06:07:41.253Z,4
2017-03-24T06:08:51.497Z,4
2017-03-24T06:10:01.439Z,4
2017-03-24T06:11:11.685Z,4
2017-03-24T06:12:21.931Z,4
2017-03-24T06:13:32.250Z,4
2017-03-24T06:14:42.188Z,0
2017-03-24T06:15:52.119Z,0
2017-03-24T06:17:02.088Z,0
2017-03-24T06:18:12.027Z,4
2017-03-24T06:19:21.972Z,0
2017-03-24T06:20:32.233Z,0
2017-03-24T06:21:42.477Z,0
2017-03-24T06:22:52.725Z,4
2017-03-24T06:24:02.975Z,4
2017-03-24T06:25:13.222Z,4
2017-03-24T06:26:23.466Z,4
2017-03-24T06:27:33.731Z,4
2017-03-24T06:28:43.666Z,4
2017-03-24T06:29:53.601Z,4
2017-03-24T06:31:03.224Z,4
2017-03-24T06:32:13.153Z,4
2017-03-24T06:33:22.777Z,4
2017-03-24T06:34:32.721Z,4
2017-03-24T06:35:42.650Z,4
2017-03-24T06:36:52.269Z,4
2017-03-24T06:38:01.572Z,4
2017-03-24T06:39:11.822Z,4
2017-03-24T06:40:21.753Z,0
2017-03-24T06:41:32.002Z,4
2017-03-24T06:42:42.296Z,4
2017-03-24T06:43:52.540Z,4
2017-03-24T06:45:02.507Z,4
2017-03-24T06:46:12.748Z,4
2017-03-24T06:47:22.677Z,4
2017-03-24T06:48:32.612Z,4
2017-03-24T06:49:42.235Z,4
2017-03-24T06:50:51.852Z,4
2017-03-24T06:52:02.090Z,4
2017-03-24T06:53:11.706Z,4
2017-03-24T06:54:21.957Z,4
2017-03-24T06:55:31.890Z,4
2017-03-24T06:56:42.129Z,4
2017-03-24T06:57:52.069Z,4
2017-03-24T06:59:01.694Z,4
2017-03-24T07:00:11.644Z,4
2017-03-24T07:01:21.911Z,8
2017-03-24T07:02:31.834Z,8
2017-03-24T07:03:41.461Z,4
2017-03-24T07:04:51.405Z,4
2017-03-24T07:06:01.332Z,4
2017-03-24T07:07:10.953Z,4
2017-03-24T07:08:20.889Z,4
2017-03-24T07:09:30.823Z,4
2017-03-24T07:10:41.072Z,4
2017-03-24T07:11:50.379Z,4
2017-03-24T07:13:00.318Z,4
2017-03-24T07:14:09.626Z,4
2017-03-24T07:15:19.887Z,4
2017-03-24T07:16:29.813Z,8
2017-03-24T07:17:40.054Z,8
2017-03-24T07:18:50.005Z,8
2017-03-24T07:19:59.335Z,8
2017-03-24T07:21:09.582Z,4
2017-03-24T07:22:19.196Z,4
2017-03-24T07:23:29.136Z,4
2017-03-24T07:24:39.076Z,4
2017-03-24T07:25:48.695Z,8
2017-03-24T07:26:58.635Z,8
2017-03-24T07:28:08.268Z,8
2017-03-24T07:29:18.216Z,8
2017-03-24T07:30:28.149Z,8
2017-03-24T07:31:37.771Z,4
2017-03-24T07:32:48.021Z,4
2017-03-24T07:33:57.949Z,4
2017-03-24T07:35:07.254Z,4
2017-03-24T07:36:17.499Z,8
2017-03-24T07:37:27.425Z,8
2017-03-24T07:38:37.357Z,8
2017-03-24T07:39:47.306Z,8
2017-03-24T07:40:57.239Z,8
2017-03-24T07:42:07.488Z,4
2017-03-24T07:43:17.737Z,4
2017-03-24T07:44:27.687Z,4
2017-03-24T07:45:36.993Z,4
2017-03-24T07:46:46.929Z,4
2017-03-24T07:47:56.863Z,8
2017-03-24T07:49:06.809Z,8
2017-03-24T07:50:16.128Z,8
2017-03-24T07:51:26.411Z,4
2017-03-24T07:52:36.691Z,8
2017-03-24T07:53:46.312Z,8
2017-03-24T07:54:56.253Z,4
2017-03-24T07:56:06.519Z,4
2017-03-24T07:57:16.765Z,8
2017-03-24T07:58:26.385Z,12
2017-03-24T07:59:36.317Z,12
2017-03-24T08:00:46.247Z,24
2017-03-24T08:01:56.489Z,40
2017-03-24T08:03:06.733Z,48
2017-03-24T08:04:16.652Z,60
2017-03-24T08:05:26.894Z,68
2017-03-24T08:06:36.210Z,72
2017-03-24T08:07:46.449Z,76
2017-03-24T08:08:56.687Z,76
2017-03-24T08:10:06.932Z,76
2017-03-24T08:11:16.867Z,76
2017-03-24T08:12:26.478Z,76
2017-03-24T08:13:36.413Z,76
2017-03-24T08:14:46.338Z,72
2017-03-24T08:15:56.264Z,72
2017-03-24T08:17:06.499Z,72
2017-03-24T08:18:16.433Z,68
2017-03-24T08:19:26.362Z,68
2017-03-24T08:20:36.652Z,68
2017-03-24T08:21:46.271Z,72
2017-03-24T08:22:56.514Z,68
2017-03-24T08:24:06.749Z,72
2017-03-24T08:25:16.674Z,68
2017-03-24T08:26:26.912Z,68
2017-03-24T08:27:36.527Z,68
2017-03-24T08:28:46.765Z,68
2017-03-24T08:29:56.699Z,68
2017-03-24T08:31:06.001Z,68
2017-03-24T08:32:16.248Z,68
2017-03-24T08:33:25.900Z,64
2017-03-24T08:34:36.144Z,64
2017-03-24T08:35:46.392Z,64
2017-03-24T08:36:56.315Z,60
2017-03-24T08:38:06.561Z,60
2017-03-24T08:39:16.505Z,60
2017-03-24T08:40:25.804Z,60
2017-03-24T08:41:36.044Z,56
2017-03-24T08:42:45.667Z,56
2017-03-24T08:43:55.612Z,56
2017-03-24T08:45:05.849Z,56
2017-03-24T08:46:15.780Z,52
2017-03-24T08:47:25.703Z,52
2017-03-24T08:48:35.960Z,52
2017-03-24T08:49:45.929Z,52
2017-03-24T08:50:55.852Z,52
2017-03-24T08:52:05.780Z,48
2017-03-24T08:53:15.709Z,52
2017-03-24T08:54:25.950Z,48
2017-03-24T08:55:35.871Z,48
2017-03-24T08:56:46.112Z,48
2017-03-24T08:57:56.356Z,44
2017-03-24T08:59:06.284Z,44
2017-03-24T09:00:16.221Z,44
2017-03-24T09:01:26.145Z,48
2017-03-24T09:02:35.489Z,48
2017-03-24T09:03:45.767Z,40
2017-03-24T09:04:56.008Z,40
2017-03-24T09:06:06.247Z,40
2017-03-24T09:07:16.495Z,40
2017-03-24T09:08:26.421Z,40
2017-03-24T09:09:36.354Z,40
2017-03-24T09:10:46.280Z,40
2017-03-24T09:11:56.213Z,36
2017-03-24T09:13:06.147Z,36
2017-03-24T09:14:16.085Z,36
2017-03-24T09:15:26.329Z,36
2017-03-24T09:16:35.320Z,32
2017-03-24T09:17:45.565Z,36
2017-03-24T09:18:55.173Z,32
2017-03-24T09:20:05.104Z,32
2017-03-24T09:21:15.351Z,32
2017-03-24T09:22:25.280Z,32
2017-03-24T09:23:35.205Z,32
2017-03-24T09:24:45.134Z,32
2017-03-24T09:25:55.374Z,28
2017-03-24T09:27:05.300Z,28
2017-03-24T09:28:15.541Z,32
2017-03-24T09:29:25.462Z,28
2017-03-24T09:30:35.392Z,32
2017-03-24T09:31:45.323Z,28
2017-03-24T09:32:54.950Z,28
2017-03-24T09:34:04.248Z,24
2017-03-24T09:35:14.487Z,28
2017-03-24T09:36:24.723Z,24
2017-03-24T09:37:34.650Z,28
2017-03-24T09:38:44.574Z,24
2017-03-24T09:39:54.815Z,24
2017-03-24T09:41:05.058Z,24
2017-03-24T09:42:15.302Z,24
2017-03-24T09:43:25.539Z,24
2017-03-24T09:44:35.488Z,24
2017-03-24T09:45:45.734Z,20
2017-03-24T09:46:55.348Z,24
2017-03-24T09:48:05.595Z,24
2017-03-24T09:49:15.855Z,24
2017-03-24T09:50:26.102Z,20
2017-03-24T09:51:35.717Z,24
2017-03-24T09:52:45.959Z,20
2017-03-24T09:53:55.886Z,20
2017-03-24T09:55:06.142Z,24
2017-03-24T09:56:15.805Z,20
2017-03-24T09:57:26.043Z,20
2017-03-24T09:58:35.968Z,20
2017-03-24T09:59:45.894Z,20
2017-03-24T10:00:55.514Z,20
2017-03-24T10:02:05.463Z,20
2017-03-24T10:03:15.405Z,20
2017-03-24T10:04:25.332Z,20
2017-03-24T10:05:34.940Z,20
2017-03-24T10:06:45.191Z,20
2017-03-24T10:07:55.426Z,16
2017-03-24T10:09:04.418Z,20
2017-03-24T10:10:14.662Z,20
2017-03-24T10:11:24.588Z,20
2017-03-24T10:12:34.837Z,20
2017-03-24T10:13:45.075Z,16
2017-03-24T10:14:55.316Z,20
2017-03-24T10:16:05.561Z,20
2017-03-24T10:17:15.800Z,16
2017-03-24T10:18:26.040Z,16
2017-03-24T10:19:35.661Z,20
2017-03-24T10:20:45.601Z,16
2017-03-24T10:21:55.553Z,16
2017-03-24T10:23:05.169Z,16
2017-03-24T10:24:14.783Z,16
2017-03-24T10:25:24.091Z,16
2017-03-24T10:26:34.330Z,12
2017-03-24T10:27:43.633Z,16
2017-03-24T10:28:53.254Z,16
2017-03-24T10:30:03.494Z,16
2017-03-24T10:31:13.422Z,16
2017-03-24T10:32:23.667Z,12
2017-03-24T10:33:32.652Z,12
2017-03-24T10:34:42.946Z,16
2017-03-24T10:35:53.192Z,16
2017-03-24T10:37:03.437Z,12
2017-03-24T10:38:12.739Z,12
2017-03-24T10:39:22.356Z,12
2017-03-24T10:40:32.284Z,12
2017-03-24T10:41:42.523Z,12
2017-03-24T10:42:52.131Z,16
2017-03-24T10:44:02.375Z,12
2017-03-24T10:45:11.680Z,12
2017-03-24T10:46:21.614Z,12
2017-03-24T10:47:31.236Z,12
2017-03-24T10:48:40.849Z,12
2017-03-24T10:49:51.095Z,12
2017-03-24T10:51:01.021Z,12
2017-03-24T10:52:11.263Z,12
2017-03-24T10:53:21.204Z,12
2017-03-24T10:54:31.123Z,12
2017-03-24T10:55:40.734Z,12
2017-03-24T10:56:50.976Z,12
2017-03-24T10:58:00.907Z,8
2017-03-24T10:59:10.520Z,12
2017-03-24T11:00:20.448Z,12
2017-03-24T11:01:30.699Z,8
2017-03-24T11:02:40.635Z,8
2017-03-24T11:03:50.574Z,12
2017-03-24T11:05:00.498Z,8
2017-03-24T11:06:10.430Z,8
2017-03-24T11:07:20.363Z,8
2017-03-24T11:08:30.341Z,8
2017-03-24T11:09:40.275Z,12
2017-03-24T11:10:50.200Z,8
2017-03-24T11:11:59.811Z,12
2017-03-24T11:13:10.053Z,12
2017-03-24T11:14:19.975Z,12
2017-03-24T11:15:29.920Z,12
2017-03-24T11:16:39.540Z,12
2017-03-24T11:17:49.783Z,12
2017-03-24T11:18:59.719Z,12
2017-03-24T11:20:09.654Z,12
2017-03-24T11:21:19.907Z,12
2017-03-24T11:22:29.829Z,12
2017-03-24T11:23:39.444Z,12
2017-03-24T11:24:49.374Z,8
2017-03-24T11:25:59.302Z,8
2017-03-24T11:27:08.958Z,8
2017-03-24T11:28:18.888Z,8
2017-03-24T11:29:28.813Z,8
2017-03-24T11:30:37.806Z,12
2017-03-24T11:31:48.045Z,8
2017-03-24T11:32:57.985Z,12
2017-03-24T11:34:08.232Z,8
2017-03-24T11:35:18.164Z,8
2017-03-24T11:36:27.474Z,8
2017-03-24T11:37:37.715Z,12
2017-03-24T11:38:47.975Z,8
2017-03-24T11:39:57.597Z,8
2017-03-24T11:41:07.537Z,8
2017-03-24T11:42:17.779Z,8
2017-03-24T11:43:28.021Z,8
2017-03-24T11:44:37.959Z,8
2017-03-24T11:45:47.896Z,8
2017-03-24T11:46:57.823Z,12
2017-03-24T11:48:08.107Z,8
2017-03-24T11:49:18.040Z,8
2017-03-24T11:50:27.651Z,8
2017-03-24T11:51:37.598Z,8
2017-03-24T11:52:47.529Z,8
2017-03-24T11:53:57.466Z,8
2017-03-24T11:55:07.079Z,8
2017-03-24T11:56:17.316Z,8
2017-03-24T11:57:27.247Z,8
2017-03-24T11:58:37.179Z,8
2017-03-24T11:59:47.109Z,8
2017-03-24T12:00:57.038Z,8
2017-03-24T12:02:06.972Z,8
2017-03-24T12:03:16.902Z,4
2017-03-24T12:04:26.530Z,8
2017-03-24T12:05:36.137Z,8
2017-03-24T12:06:46.060Z,12
2017-03-24T12:07:55.984Z,8
2017-03-24T12:09:05.913Z,8
2017-03-24T12:10:15.843Z,8
2017-03-24T12:11:25.766Z,8
2017-03-24T12:12:35.696Z,8
2017-03-24T12:13:45.937Z,8
2017-03-24T12:14:56.187Z,8
2017-03-24T12:16:06.115Z,8
2017-03-24T12:17:16.041Z,8
2017-03-24T12:18:25.657Z,8
2017-03-24T12:19:35.893Z,8
2017-03-24T12:20:45.195Z,12
2017-03-24T12:21:55.439Z,12
2017-03-24T12:23:05.723Z,12
2017-03-24T12:24:15.963Z,12
2017-03-24T12:25:25.268Z,8
2017-03-24T12:26:35.202Z,8
2017-03-24T12:27:45.130Z,8
2017-03-24T12:28:55.057Z,12
2017-03-24T12:30:04.669Z,12
2017-03-24T12:31:13.976Z,12
2017-03-24T12:32:24.225Z,12
2017-03-24T12:33:34.471Z,8
2017-03-24T12:34:44.096Z,12
2017-03-24T12:35:54.350Z,12
2017-03-24T12:37:04.591Z,12
2017-03-24T12:38:14.834Z,12
2017-03-24T12:39:24.757Z,12
2017-03-24T12:40:35.007Z,12
2017-03-24T12:41:45.254Z,12
2017-03-24T12:42:55.185Z,16
2017-03-24T12:44:05.105Z,12
2017-03-24T12:45:15.041Z,12
2017-03-24T12:46:24.968Z,12
2017-03-24T12:47:34.894Z,12
2017-03-24T12:48:44.817Z,12
2017-03-24T12:49:54.431Z,12
2017-03-24T12:51:04.401Z,12
2017-03-24T12:52:14.342Z,12
2017-03-24T12:53:23.959Z,12
2017-03-24T12:54:33.900Z,16
2017-03-24T12:55:43.207Z,12
2017-03-24T12:56:53.144Z,12
2017-03-24T12:58:03.075Z,12
2017-03-24T12:59:13.007Z,12
2017-03-24T13:00:22.945Z,16
2017-03-24T13:01:32.908Z,16
2017-03-24T13:02:42.838Z,12
2017-03-24T13:03:52.764Z,16
2017-03-24T13:05:02.701Z,16
2017-03-24T13:06:12.339Z,16
2017-03-24T13:07:21.953Z,16
2017-03-24T13:08:32.193Z,16
2017-03-24T13:09:42.121Z,12
2017-03-24T13:10:52.365Z,16
2017-03-24T13:12:01.983Z,12
2017-03-24T13:13:12.233Z,16
2017-03-24T13:14:21.856Z,16
2017-03-24T13:15:31.474Z,12
2017-03-24T13:16:41.409Z,12
2017-03-24T13:17:51.381Z,12
2017-03-24T13:19:01.655Z,12
2017-03-24T13:20:11.904Z,12
2017-03-24T13:21:21.835Z,12
2017-03-24T13:22:31.768Z,16
2017-03-24T13:23:41.384Z,16
2017-03-24T13:24:51.622Z,16
2017-03-24T13:26:01.568Z,16
2017-03-24T13:27:11.518Z,16
2017-03-24T13:28:20.822Z,16
2017-03-24T13:29:30.753Z,16
2017-03-24T13:30:41.001Z,16
2017-03-24T13:31:50.950Z,16
2017-03-24T13:33:00.886Z,20
2017-03-24T13:34:10.225Z,16
2017-03-24T13:35:20.161Z,16
2017-03-24T13:36:30.097Z,16
2017-03-24T13:37:40.022Z,16
2017-03-24T13:38:49.947Z,16
2017-03-24T13:40:00.198Z,16
2017-03-24T13:41:09.500Z,16
2017-03-24T13:42:19.441Z,16
2017-03-24T13:43:29.374Z,20
2017-03-24T13:44:38.992Z,16
2017-03-24T13:45:48.928Z,16
2017-03-24T13:46:59.171Z,16
2017-03-24T13:48:09.104Z,16
2017-03-24T13:49:19.352Z,16
2017-03-24T13:50:28.974Z,16
2017-03-24T13:51:39.218Z,16
2017-03-24T13:52:49.459Z,20
2017-03-24T13:53:59.707Z,20
2017-03-24T13:55:09.638Z,20
2017-03-24T13:56:18.645Z,20
2017-03-24T13:57:28.892Z,20
2017-03-24T13:58:39.132Z,20
2017-03-24T13:59:49.373Z,20
2017-03-24T14:00:58.999Z,20
2017-03-24T14:02:09.238Z,16
2017-03-24T14:03:19.478Z,16
2017-03-24T14:04:29.092Z,16
2017-03-24T14:05:38.712Z,16
2017-03-24T14:06:48.958Z,16
2017-03-24T14:07:59.200Z,16
2017-03-24T14:09:09.451Z,20
2017-03-24T14:10:19.704Z,20
2017-03-24T14:11:29.949Z,16
2017-03-24T14:12:40.192Z,16
2017-03-24T14:13:50.126Z,16
2017-03-24T14:14:59.430Z,16
2017-03-24T14:16:09.373Z,16
2017-03-24T14:17:19.614Z,16
2017-03-24T14:18:28.919Z,16
2017-03-24T14:19:39.168Z,16
2017-03-24T14:20:48.801Z,16
2017-03-24T14:21:59.050Z,16
2017-03-24T14:23:09.292Z,16
2017-03-24T14:24:18.905Z,16
2017-03-24T14:25:29.148Z,16
2017-03-24T14:26:39.400Z,16
2017-03-24T14:27:49.345Z,16
2017-03-24T14:28:59.316Z,16
2017-03-24T14:30:09.252Z,16
2017-03-24T14:31:18.247Z,16
2017-03-24T14:32:28.178Z,20
2017-03-24T14:33:38.429Z,16
2017-03-24T14:34:48.671Z,16
2017-03-24T14:35:58.920Z,16
2017-03-24T14:37:07.634Z,16
2017-03-24T14:38:17.248Z,12
2017-03-24T14:39:27.180Z,16
2017-03-24T14:40:37.112Z,16
2017-03-24T14:41:47.054Z,16
2017-03-24T14:42:57.300Z,12
2017-03-24T14:44:07.227Z,12
2017-03-24T14:45:17.161Z,16
2017-03-24T14:46:26.786Z,12
2017-03-24T14:47:37.025Z,16
2017-03-24T14:48:46.955Z,16
2017-03-24T14:49:57.197Z,16
2017-03-24T14:51:07.457Z,16
2017-03-24T14:52:17.395Z,16
2017-03-24T14:53:26.381Z,12
2017-03-24T14:54:36.304Z,12
2017-03-24T14:55:46.565Z,12
2017-03-24T14:56:56.549Z,16
2017-03-24T14:58:06.800Z,16
2017-03-24T14:59:16.428Z,16
2017-03-24T15:00:26.391Z,12
2017-03-24T15:01:36.015Z,12
2017-03-24T15:02:46.260Z,12
2017-03-24T15:03:56.184Z,16
2017-03-24T15:05:06.429Z,12
2017-03-24T15:06:16.387Z,12
2017-03-24T15:07:26.631Z,12
2017-03-24T15:08:36.248Z,12
2017-03-24T15:09:46.186Z,12
2017-03-24T15:10:55.803Z,8
2017-03-24T15:12:05.426Z,12
2017-03-24T15:13:15.363Z,12
2017-03-24T15:14:24.974Z,12
2017-03-24T15:15:34.602Z,12
2017-03-24T15:16:44.530Z,8
2017-03-24T15:17:53.836Z,8
2017-03-24T15:19:04.084Z,12
2017-03-24T15:20:14.327Z,12
2017-03-24T15:21:24.572Z,8
2017-03-24T15:22:34.813Z,8
2017-03-24T15:23:45.063Z,8
2017-03-24T15:24:54.685Z,8
2017-03-24T15:26:04.616Z,8
2017-03-24T15:27:14.865Z,8
2017-03-24T15:28:24.795Z,8
2017-03-24T15:29:34.415Z,8
2017-03-24T15:30:44.350Z,8
2017-03-24T15:31:54.598Z,8
2017-03-24T15:33:04.218Z,12
2017-03-24T15:34:14.459Z,8
2017-03-24T15:35:24.392Z,8
2017-03-24T15:36:34.322Z,8
2017-03-24T15:37:44.559Z,8
2017-03-24T15:38:54.799Z,8
2017-03-24T15:40:04.109Z,8
2017-03-24T15:41:14.348Z,8
2017-03-24T15:42:24.274Z,8
2017-03-24T15:43:34.204Z,4
2017-03-24T15:44:44.144Z,4
2017-03-24T15:45:54.071Z,4
2017-03-24T15:47:04.000Z,8
2017-03-24T15:48:13.312Z,8
2017-03-24T15:49:23.554Z,8
2017-03-24T15:50:33.493Z,4
2017-03-24T15:51:43.432Z,4
2017-03-24T15:52:53.370Z,8
2017-03-24T15:54:03.295Z,4
2017-03-24T15:55:13.543Z,4
2017-03-24T15:56:23.786Z,4
2017-03-24T15:57:33.716Z,4
2017-03-24T15:58:43.652Z,4
2017-03-24T15:59:53.895Z,4
2017-03-24T16:01:04.145Z,4
2017-03-24T16:02:14.390Z,4
2017-03-24T16:03:24.624Z,4
2017-03-24T16:04:34.554Z,4
2017-03-24T16:05:44.481Z,4
2017-03-24T16:06:54.412Z,4
2017-03-24T16:08:04.345Z,4
2017-03-24T16:09:13.331Z,4
2017-03-24T16:10:23.578Z,0
2017-03-24T16:11:33.510Z,4
2017-03-24T16:12:43.449Z,4
2017-03-24T16:13:52.747Z,4
2017-03-24T16:15:02.991Z,4
2017-03-24T16:16:12.924Z,4
2017-03-24T16:17:23.159Z,0
2017-03-24T16:18:33.402Z,0
2017-03-24T16:19:43.327Z,0
2017-03-24T16:20:53.567Z,4
2017-03-24T16:22:03.817Z,4
2017-03-24T16:23:14.054Z,4
2017-03-24T16:24:24.296Z,4
2017-03-24T16:25:34.534Z,0
2017-03-24T16:26:44.778Z,0
2017-03-24T16:27:54.417Z,0
2017-03-24T16:29:04.660Z,0
2017-03-24T16:30:14.589Z,0
2017-03-24T16:31:24.512Z,0
2017-03-24T16:32:34.753Z,0
2017-03-24T16:33:44.682Z,0
2017-03-24T16:34:54.615Z,0
2017-03-24T16:36:04.279Z,0
2017-03-24T16:37:13.890Z,4
2017-03-24T16:38:24.131Z,4
2017-03-24T16:39:34.057Z,4
2017-03-24T16:40:43.990Z,4
2017-03-24T16:41:53.614Z,4
2017-03-24T16:43:03.550Z,4
2017-03-24T16:44:13.165Z,4
2017-03-24T16:45:23.091Z,4
2017-03-24T16:46:33.028Z,4
2017-03-24T16:47:43.275Z,4
2017-03-24T16:48:53.208Z,4
2017-03-24T16:50:03.448Z,0
2017-03-24T16:51:13.064Z,0
2017-03-24T16:52:23.310Z,0
2017-03-24T16:53:33.601Z,0
2017-03-24T16:54:43.527Z,0
2017-03-24T16:55:53.771Z,0
2017-03-24T16:57:03.696Z,0
2017-03-24T16:58:13.633Z,0
2017-03-24T16:59:23.581Z,0
2017-03-24T17:00:33.840Z,0
2017-03-24T17:01:44.089Z,0
2017-03-24T17:02:54.021Z,0
2017-03-24T17:04:03.942Z,0
2017-03-24T17:05:13.564Z,0
2017-03-24T17:06:23.500Z,0
2017-03-24T17:07:33.740Z,0
2017-03-24T17:08:43.982Z,0